sensor_id;sensor_type;location;lat;lon;timestamp;P1;durP1;ratioP1;P2;durP2;ratioP2
51459;SDS011;37534;39.772;2.718;2022-08-03T00:02:14;2.90;;;2.63;;
51459;SDS011;37534;39.772;2.718;2022-08-03T00:04:40;4.00;;;2.97;;
51459;SDS011;37534;39.772;2.718;2022-08-03T00:07:06;3.55;;;2.78;;
51459;SDS011;37534;39.772;2.718;2022-08-03T00:09:31;3.20;;;2.90;;
51459;SDS011;37534;39.772;2.718;2022-08-03T00:11:57;3.10;;;2.85;;
51459;SDS011;37534;39.772;2.718;2022-08-03T00:14:22;3.88;;;3.53;;
51459;SDS011;37534;39.772;2.718;2022-08-03T00:16:48;3.05;;;2.75;;
51459;SDS011;37534;39.772;2.718;2022-08-03T00:19:13;5.05;;;3.35;;
51459;SDS011;37534;39.772;2.718;2022-08-03T00:21:39;11.43;;;3.83;;
51459;SDS011;37534;39.772;2.718;2022-08-03T00:24:04;4.32;;;3.42;;
51459;SDS011;37534;39.772;2.718;2022-08-03T00:26:30;3.65;;;3.35;;
51459;SDS011;37534;39.772;2.718;2022-08-03T00:28:56;3.33;;;3.03;;
51459;SDS011;37534;39.772;2.718;2022-08-03T00:31:21;6.78;;;2.58;;
51459;SDS011;37534;39.772;2.718;2022-08-03T00:33:47;15.18;;;3.30;;
51459;SDS011;37534;39.772;2.718;2022-08-03T00:36:12;7.15;;;2.95;;
51459;SDS011;37534;39.772;2.718;2022-08-03T00:38:38;3.85;;;3.55;;
51459;SDS011;37534;39.772;2.718;2022-08-03T00:41:03;4.90;;;2.67;;
51459;SDS011;37534;39.772;2.718;2022-08-03T00:43:29;4.10;;;3.17;;
51459;SDS011;37534;39.772;2.718;2022-08-03T00:45:54;3.95;;;2.80;;
51459;SDS011;37534;39.772;2.718;2022-08-03T00:48:21;3.30;;;3.00;;
51459;SDS011;37534;39.772;2.718;2022-08-03T00:50:46;3.03;;;2.72;;
51459;SDS011;37534;39.772;2.718;2022-08-03T00:53:12;3.97;;;3.55;;
51459;SDS011;37534;39.772;2.718;2022-08-03T00:55:41;3.75;;;2.97;;
51459;SDS011;37534;39.772;2.718;2022-08-03T00:58:08;4.18;;;2.42;;
51459;SDS011;37534;39.772;2.718;2022-08-03T01:00:36;5.07;;;3.00;;
51459;SDS011;37534;39.772;2.718;2022-08-03T01:03:04;4.45;;;2.92;;
51459;SDS011;37534;39.772;2.718;2022-08-03T01:05:37;4.57;;;2.45;;
51459;SDS011;37534;39.772;2.718;2022-08-03T01:11:57;4.15;;;2.85;;
51459;SDS011;37534;39.772;2.718;2022-08-03T01:14:16;3.08;;;2.78;;
51459;SDS011;37534;39.772;2.718;2022-08-03T01:16:56;4.75;;;3.42;;
51459;SDS011;37534;39.772;2.718;2022-08-03T01:31:54;8.68;;;2.88;;
51459;SDS011;37534;39.772;2.718;2022-08-03T01:34:25;4.88;;;3.28;;
51459;SDS011;37534;39.772;2.718;2022-08-03T01:36:55;4.45;;;2.60;;
51459;SDS011;37534;39.772;2.718;2022-08-03T01:39:23;3.83;;;2.50;;
51459;SDS011;37534;39.772;2.718;2022-08-03T01:41:58;3.70;;;2.53;;
51459;SDS011;37534;39.772;2.718;2022-08-03T01:44:30;3.00;;;2.78;;
51459;SDS011;37534;39.772;2.718;2022-08-03T01:47:00;3.08;;;2.78;;
51459;SDS011;37534;39.772;2.718;2022-08-03T01:49:27;3.78;;;3.47;;
51459;SDS011;37534;39.772;2.718;2022-08-03T01:51:56;8.70;;;2.83;;
51459;SDS011;37534;39.772;2.718;2022-08-03T01:54:23;3.08;;;2.88;;
51459;SDS011;37534;39.772;2.718;2022-08-03T01:56:50;4.03;;;3.00;;
51459;SDS011;37534;39.772;2.718;2022-08-03T01:59:18;3.08;;;2.88;;
51459;SDS011;37534;39.772;2.718;2022-08-03T02:01:46;3.00;;;2.70;;
51459;SDS011;37534;39.772;2.718;2022-08-03T02:04:13;5.03;;;3.13;;
51459;SDS011;37534;39.772;2.718;2022-08-03T02:06:42;3.17;;;2.97;;
51459;SDS011;37534;39.772;2.718;2022-08-03T02:09:11;6.43;;;2.97;;
51459;SDS011;37534;39.772;2.718;2022-08-03T02:11:38;3.08;;;2.78;;
51459;SDS011;37534;39.772;2.718;2022-08-03T02:14:06;2.63;;;2.53;;
51459;SDS011;37534;39.772;2.718;2022-08-03T02:16:33;4.38;;;2.80;;
51459;SDS011;37534;39.772;2.718;2022-08-03T02:19:00;6.05;;;3.40;;
51459;SDS011;37534;39.772;2.718;2022-08-03T02:21:28;3.58;;;3.08;;
51459;SDS011;37534;39.772;2.718;2022-08-03T02:23:57;3.13;;;2.90;;
51459;SDS011;37534;39.772;2.718;2022-08-03T02:26:23;8.48;;;2.97;;
51459;SDS011;37534;39.772;2.718;2022-08-03T02:28:53;3.83;;;3.00;;
51459;SDS011;37534;39.772;2.718;2022-08-03T02:31:22;3.72;;;2.50;;
51459;SDS011;37534;39.772;2.718;2022-08-03T02:33:52;4.43;;;2.80;;
51459;SDS011;37534;39.772;2.718;2022-08-03T02:36:21;2.97;;;2.65;;
51459;SDS011;37534;39.772;2.718;2022-08-03T02:38:51;2.95;;;2.75;;
51459;SDS011;37534;39.772;2.718;2022-08-03T02:41:20;3.30;;;3.00;;
51459;SDS011;37534;39.772;2.718;2022-08-03T02:43:53;4.32;;;2.92;;
51459;SDS011;37534;39.772;2.718;2022-08-03T02:46:23;3.40;;;3.10;;
51459;SDS011;37534;39.772;2.718;2022-08-03T02:48:52;3.25;;;2.95;;
51459;SDS011;37534;39.772;2.718;2022-08-03T02:51:20;3.40;;;2.70;;
51459;SDS011;37534;39.772;2.718;2022-08-03T02:53:47;3.58;;;3.00;;
51459;SDS011;37534;39.772;2.718;2022-08-03T02:56:14;3.10;;;2.58;;
51459;SDS011;37534;39.772;2.718;2022-08-03T02:58:41;3.03;;;2.70;;
51459;SDS011;37534;39.772;2.718;2022-08-03T03:01:09;4.32;;;3.03;;
51459;SDS011;37534;39.772;2.718;2022-08-03T03:03:36;4.03;;;3.25;;
51459;SDS011;37534;39.772;2.718;2022-08-03T03:06:02;4.28;;;2.65;;
51459;SDS011;37534;39.772;2.718;2022-08-03T03:08:29;4.68;;;4.28;;
51459;SDS011;37534;39.772;2.718;2022-08-03T03:10:56;3.63;;;3.17;;
51459;SDS011;37534;39.772;2.718;2022-08-03T03:13:23;2.65;;;2.45;;
51459;SDS011;37534;39.772;2.718;2022-08-03T03:15:51;4.32;;;3.38;;
51459;SDS011;37534;39.772;2.718;2022-08-03T03:18:18;7.10;;;3.83;;
51459;SDS011;37534;39.772;2.718;2022-08-03T03:20:45;2.72;;;2.53;;
51459;SDS011;37534;39.772;2.718;2022-08-03T03:23:12;2.90;;;2.70;;
51459;SDS011;37534;39.772;2.718;2022-08-03T03:25:38;3.10;;;2.80;;
51459;SDS011;37534;39.772;2.718;2022-08-03T03:28:04;3.08;;;2.83;;
51459;SDS011;37534;39.772;2.718;2022-08-03T03:30:30;2.92;;;2.70;;
51459;SDS011;37534;39.772;2.718;2022-08-03T03:32:57;3.80;;;3.47;;
51459;SDS011;37534;39.772;2.718;2022-08-03T03:35:23;5.32;;;3.58;;
51459;SDS011;37534;39.772;2.718;2022-08-03T03:37:49;3.03;;;2.70;;
51459;SDS011;37534;39.772;2.718;2022-08-03T03:40:15;3.85;;;3.45;;
51459;SDS011;37534;39.772;2.718;2022-08-03T03:42:41;5.80;;;3.60;;
51459;SDS011;37534;39.772;2.718;2022-08-03T03:45:07;2.70;;;2.50;;
51459;SDS011;37534;39.772;2.718;2022-08-03T03:47:34;8.60;;;3.35;;
51459;SDS011;37534;39.772;2.718;2022-08-03T03:50:03;3.28;;;3.03;;
51459;SDS011;37534;39.772;2.718;2022-08-03T03:52:30;6.13;;;2.92;;
51459;SDS011;37534;39.772;2.718;2022-08-03T03:54:56;4.78;;;3.25;;
51459;SDS011;37534;39.772;2.718;2022-08-03T03:57:22;6.00;;;3.00;;
51459;SDS011;37534;39.772;2.718;2022-08-03T03:59:48;4.47;;;2.97;;
51459;SDS011;37534;39.772;2.718;2022-08-03T04:02:13;3.20;;;3.00;;
51459;SDS011;37534;39.772;2.718;2022-08-03T04:04:39;3.75;;;3.45;;
51459;SDS011;37534;39.772;2.718;2022-08-03T04:07:23;4.75;;;3.90;;
51459;SDS011;37534;39.772;2.718;2022-08-03T04:10:12;8.52;;;7.47;;
51459;SDS011;37534;39.772;2.718;2022-08-03T04:13:01;14.88;;;7.28;;
51459;SDS011;37534;39.772;2.718;2022-08-03T04:15:28;4.00;;;3.70;;
51459;SDS011;37534;39.772;2.718;2022-08-03T04:17:56;6.00;;;4.05;;
51459;SDS011;37534;39.772;2.718;2022-08-03T04:20:25;3.13;;;2.78;;
51459;SDS011;37534;39.772;2.718;2022-08-03T04:22:54;7.50;;;3.27;;
51459;SDS011;37534;39.772;2.718;2022-08-03T04:25:24;6.63;;;3.83;;
51459;SDS011;37534;39.772;2.718;2022-08-03T04:27:54;3.78;;;3.08;;
51459;SDS011;37534;39.772;2.718;2022-08-03T04:30:23;3.40;;;3.03;;
51459;SDS011;37534;39.772;2.718;2022-08-03T04:32:51;3.35;;;3.15;;
51459;SDS011;37534;39.772;2.718;2022-08-03T04:35:19;7.75;;;3.70;;
51459;SDS011;37534;39.772;2.718;2022-08-03T04:37:45;12.05;;;3.95;;
51459;SDS011;37534;39.772;2.718;2022-08-03T04:40:14;11.90;;;3.95;;
51459;SDS011;37534;39.772;2.718;2022-08-03T04:42:44;7.93;;;3.58;;
51459;SDS011;37534;39.772;2.718;2022-08-03T04:45:13;4.63;;;2.85;;
51459;SDS011;37534;39.772;2.718;2022-08-03T04:47:40;10.35;;;3.42;;
51459;SDS011;37534;39.772;2.718;2022-08-03T04:50:06;9.88;;;3.38;;
51459;SDS011;37534;39.772;2.718;2022-08-03T04:52:33;2.88;;;2.67;;
51459;SDS011;37534;39.772;2.718;2022-08-03T04:54:59;3.70;;;3.20;;
51459;SDS011;37534;39.772;2.718;2022-08-03T04:57:25;6.80;;;2.97;;
51459;SDS011;37534;39.772;2.718;2022-08-03T04:59:51;6.53;;;3.10;;
51459;SDS011;37534;39.772;2.718;2022-08-03T05:02:20;5.40;;;2.88;;
51459;SDS011;37534;39.772;2.718;2022-08-03T05:04:50;13.38;;;3.60;;
51459;SDS011;37534;39.772;2.718;2022-08-03T05:07:16;7.47;;;4.05;;
51459;SDS011;37534;39.772;2.718;2022-08-03T05:09:43;16.42;;;3.92;;
51459;SDS011;37534;39.772;2.718;2022-08-03T05:12:09;6.78;;;4.40;;
51459;SDS011;37534;39.772;2.718;2022-08-03T05:14:35;9.57;;;3.50;;
51459;SDS011;37534;39.772;2.718;2022-08-03T05:17:05;8.23;;;3.38;;
51459;SDS011;37534;39.772;2.718;2022-08-03T05:19:31;4.35;;;3.60;;
51459;SDS011;37534;39.772;2.718;2022-08-03T05:21:57;5.38;;;3.85;;
51459;SDS011;37534;39.772;2.718;2022-08-03T05:24:23;3.47;;;3.10;;
51459;SDS011;37534;39.772;2.718;2022-08-03T05:26:49;7.10;;;4.38;;
51459;SDS011;37534;39.772;2.718;2022-08-03T05:29:14;5.60;;;4.25;;
51459;SDS011;37534;39.772;2.718;2022-08-03T05:31:40;5.90;;;3.60;;
51459;SDS011;37534;39.772;2.718;2022-08-03T05:34:05;8.48;;;4.40;;
51459;SDS011;37534;39.772;2.718;2022-08-03T05:36:31;8.13;;;3.42;;
51459;SDS011;37534;39.772;2.718;2022-08-03T05:38:56;8.60;;;3.53;;
51459;SDS011;37534;39.772;2.718;2022-08-03T05:41:22;10.02;;;4.35;;
51459;SDS011;37534;39.772;2.718;2022-08-03T05:43:47;7.95;;;3.88;;
51459;SDS011;37534;39.772;2.718;2022-08-03T05:46:13;4.47;;;4.05;;
51459;SDS011;37534;39.772;2.718;2022-08-03T05:48:39;19.42;;;6.43;;
51459;SDS011;37534;39.772;2.718;2022-08-03T05:51:08;7.68;;;5.35;;
51459;SDS011;37534;39.772;2.718;2022-08-03T05:53:35;6.53;;;4.93;;
51459;SDS011;37534;39.772;2.718;2022-08-03T05:56:01;7.80;;;4.03;;
51459;SDS011;37534;39.772;2.718;2022-08-03T05:58:27;10.05;;;5.53;;
51459;SDS011;37534;39.772;2.718;2022-08-03T06:00:53;7.75;;;5.05;;
51459;SDS011;37534;39.772;2.718;2022-08-03T06:03:18;11.30;;;4.63;;
51459;SDS011;37534;39.772;2.718;2022-08-03T06:05:44;14.13;;;5.25;;
51459;SDS011;37534;39.772;2.718;2022-08-03T06:08:10;5.55;;;4.88;;
51459;SDS011;37534;39.772;2.718;2022-08-03T06:10:36;4.40;;;4.00;;
51459;SDS011;37534;39.772;2.718;2022-08-03T06:13:01;15.13;;;3.85;;
51459;SDS011;37534;39.772;2.718;2022-08-03T06:15:28;17.85;;;5.63;;
51459;SDS011;37534;39.772;2.718;2022-08-03T06:17:57;8.75;;;5.13;;
51459;SDS011;37534;39.772;2.718;2022-08-03T06:20:23;11.82;;;5.20;;
51459;SDS011;37534;39.772;2.718;2022-08-03T06:22:48;15.70;;;4.78;;
51459;SDS011;37534;39.772;2.718;2022-08-03T06:25:14;15.27;;;6.32;;
51459;SDS011;37534;39.772;2.718;2022-08-03T06:27:40;8.40;;;4.35;;
51459;SDS011;37534;39.772;2.718;2022-08-03T06:30:07;11.57;;;4.05;;
51459;SDS011;37534;39.772;2.718;2022-08-03T06:32:35;7.32;;;4.47;;
51459;SDS011;37534;39.772;2.718;2022-08-03T06:35:07;6.97;;;4.53;;
51459;SDS011;37534;39.772;2.718;2022-08-03T06:37:47;6.97;;;3.25;;
51459;SDS011;37534;39.772;2.718;2022-08-03T06:40:14;4.88;;;3.20;;
51459;SDS011;37534;39.772;2.718;2022-08-03T06:42:42;9.18;;;4.05;;
51459;SDS011;37534;39.772;2.718;2022-08-03T06:45:09;19.40;;;7.60;;
51459;SDS011;37534;39.772;2.718;2022-08-03T06:47:38;9.25;;;5.78;;
51459;SDS011;37534;39.772;2.718;2022-08-03T06:50:05;10.80;;;6.22;;
51459;SDS011;37534;39.772;2.718;2022-08-03T06:52:31;15.55;;;7.53;;
51459;SDS011;37534;39.772;2.718;2022-08-03T06:54:57;13.80;;;7.38;;
51459;SDS011;37534;39.772;2.718;2022-08-03T06:57:26;8.13;;;6.50;;
51459;SDS011;37534;39.772;2.718;2022-08-03T06:59:51;10.50;;;5.13;;
51459;SDS011;37534;39.772;2.718;2022-08-03T07:02:17;8.82;;;4.47;;
51459;SDS011;37534;39.772;2.718;2022-08-03T07:04:43;8.82;;;5.63;;
51459;SDS011;37534;39.772;2.718;2022-08-03T07:07:09;6.18;;;4.88;;
51459;SDS011;37534;39.772;2.718;2022-08-03T07:09:34;4.20;;;3.83;;
51459;SDS011;37534;39.772;2.718;2022-08-03T07:12:00;10.05;;;3.70;;
51459;SDS011;37534;39.772;2.718;2022-08-03T07:14:26;5.15;;;3.83;;
51459;SDS011;37534;39.772;2.718;2022-08-03T07:16:52;3.40;;;3.10;;
51459;SDS011;37534;39.772;2.718;2022-08-03T07:19:18;5.10;;;4.20;;
51459;SDS011;37534;39.772;2.718;2022-08-03T07:21:43;8.43;;;4.43;;
51459;SDS011;37534;39.772;2.718;2022-08-03T07:24:09;4.38;;;3.85;;
51459;SDS011;37534;39.772;2.718;2022-08-03T07:26:35;11.30;;;3.88;;
51459;SDS011;37534;39.772;2.718;2022-08-03T07:29:01;12.05;;;3.85;;
51459;SDS011;37534;39.772;2.718;2022-08-03T07:31:26;17.73;;;4.53;;
51459;SDS011;37534;39.772;2.718;2022-08-03T07:33:52;10.35;;;3.85;;
51459;SDS011;37534;39.772;2.718;2022-08-03T07:36:17;4.53;;;3.08;;
51459;SDS011;37534;39.772;2.718;2022-08-03T07:38:43;8.38;;;2.97;;
51459;SDS011;37534;39.772;2.718;2022-08-03T07:41:09;3.40;;;3.10;;
51459;SDS011;37534;39.772;2.718;2022-08-03T07:43:35;11.30;;;4.65;;
51459;SDS011;37534;39.772;2.718;2022-08-03T07:46:01;8.18;;;4.95;;
51459;SDS011;37534;39.772;2.718;2022-08-03T07:48:26;5.05;;;3.95;;
51459;SDS011;37534;39.772;2.718;2022-08-03T07:50:52;6.72;;;3.65;;
51459;SDS011;37534;39.772;2.718;2022-08-03T07:53:17;4.55;;;2.88;;
51459;SDS011;37534;39.772;2.718;2022-08-03T07:55:43;5.15;;;3.00;;
51459;SDS011;37534;39.772;2.718;2022-08-03T07:58:09;9.52;;;3.92;;
51459;SDS011;37534;39.772;2.718;2022-08-03T08:00:40;9.68;;;3.40;;
51459;SDS011;37534;39.772;2.718;2022-08-03T08:03:05;6.30;;;2.58;;
51459;SDS011;37534;39.772;2.718;2022-08-03T08:05:31;2.70;;;2.35;;
51459;SDS011;37534;39.772;2.718;2022-08-03T08:07:58;2.20;;;2.00;;
51459;SDS011;37534;39.772;2.718;2022-08-03T08:10:24;6.22;;;1.90;;
51459;SDS011;37534;39.772;2.718;2022-08-03T08:12:49;1.90;;;1.80;;
51459;SDS011;37534;39.772;2.718;2022-08-03T08:15:15;7.10;;;2.78;;
51459;SDS011;37534;39.772;2.718;2022-08-03T08:17:41;2.78;;;2.58;;
51459;SDS011;37534;39.772;2.718;2022-08-03T08:20:15;5.97;;;2.80;;
51459;SDS011;37534;39.772;2.718;2022-08-03T08:22:43;4.30;;;2.90;;
51459;SDS011;37534;39.772;2.718;2022-08-03T08:25:09;5.68;;;2.33;;
51459;SDS011;37534;39.772;2.718;2022-08-03T08:27:44;2.85;;;1.65;;
51459;SDS011;37534;39.772;2.718;2022-08-03T08:30:12;2.85;;;1.88;;
51459;SDS011;37534;39.772;2.718;2022-08-03T08:32:39;4.25;;;2.40;;
51459;SDS011;37534;39.772;2.718;2022-08-03T08:35:05;3.17;;;1.88;;
51459;SDS011;37534;39.772;2.718;2022-08-03T08:37:32;4.03;;;1.95;;
51459;SDS011;37534;39.772;2.718;2022-08-03T08:39:58;1.70;;;1.60;;
51459;SDS011;37534;39.772;2.718;2022-08-03T08:42:24;3.80;;;1.45;;
51459;SDS011;37534;39.772;2.718;2022-08-03T08:44:50;5.25;;;1.58;;
51459;SDS011;37534;39.772;2.718;2022-08-03T08:47:19;2.70;;;1.40;;
51459;SDS011;37534;39.772;2.718;2022-08-03T08:49:51;4.25;;;2.10;;
51459;SDS011;37534;39.772;2.718;2022-08-03T08:52:20;2.30;;;1.40;;
51459;SDS011;37534;39.772;2.718;2022-08-03T08:54:49;3.60;;;1.98;;
51459;SDS011;37534;39.772;2.718;2022-08-03T08:57:19;1.63;;;1.40;;
51459;SDS011;37534;39.772;2.718;2022-08-03T08:59:46;1.77;;;1.67;;
51459;SDS011;37534;39.772;2.718;2022-08-03T09:02:12;4.20;;;1.90;;
51459;SDS011;37534;39.772;2.718;2022-08-03T09:04:37;1.50;;;1.30;;
51459;SDS011;37534;39.772;2.718;2022-08-03T09:07:03;3.88;;;1.33;;
51459;SDS011;37534;39.772;2.718;2022-08-03T09:09:30;1.20;;;1.08;;
51459;SDS011;37534;39.772;2.718;2022-08-03T09:11:55;1.55;;;1.40;;
51459;SDS011;37534;39.772;2.718;2022-08-03T09:14:21;1.73;;;1.50;;
51459;SDS011;37534;39.772;2.718;2022-08-03T09:17:01;9.20;;;2.28;;
51459;SDS011;37534;39.772;2.718;2022-08-03T09:19:28;2.75;;;1.75;;
51459;SDS011;37534;39.772;2.718;2022-08-03T09:22:14;4.33;;;1.43;;
51459;SDS011;37534;39.772;2.718;2022-08-03T09:24:58;2.40;;;1.65;;
51459;SDS011;37534;39.772;2.718;2022-08-03T09:27:27;2.83;;;1.58;;
51459;SDS011;37534;39.772;2.718;2022-08-03T09:29:53;2.05;;;1.30;;
51459;SDS011;37534;39.772;2.718;2022-08-03T09:32:19;5.90;;;1.40;;
51459;SDS011;37534;39.772;2.718;2022-08-03T09:34:49;3.15;;;1.50;;
51459;SDS011;37534;39.772;2.718;2022-08-03T09:37:16;2.45;;;1.73;;
51459;SDS011;37534;39.772;2.718;2022-08-03T09:39:44;2.15;;;1.50;;
51459;SDS011;37534;39.772;2.718;2022-08-03T09:42:13;2.13;;;1.80;;
51459;SDS011;37534;39.772;2.718;2022-08-03T09:44:47;3.33;;;1.75;;
51459;SDS011;37534;39.772;2.718;2022-08-03T09:47:27;5.53;;;1.75;;
51459;SDS011;37534;39.772;2.718;2022-08-03T09:50:00;1.90;;;1.38;;
51459;SDS011;37534;39.772;2.718;2022-08-03T09:52:29;3.17;;;1.48;;
51459;SDS011;37534;39.772;2.718;2022-08-03T09:54:56;2.20;;;1.75;;
51459;SDS011;37534;39.772;2.718;2022-08-03T09:57:25;1.67;;;1.58;;
51459;SDS011;37534;39.772;2.718;2022-08-03T09:59:52;1.17;;;1.08;;
51459;SDS011;37534;39.772;2.718;2022-08-03T10:02:23;1.45;;;1.35;;
51459;SDS011;37534;39.772;2.718;2022-08-03T10:04:50;1.40;;;1.30;;
51459;SDS011;37534;39.772;2.718;2022-08-03T10:07:17;1.75;;;1.65;;
51459;SDS011;37534;39.772;2.718;2022-08-03T10:09:52;3.03;;;1.30;;
51459;SDS011;37534;39.772;2.718;2022-08-03T10:12:19;2.20;;;1.70;;
51459;SDS011;37534;39.772;2.718;2022-08-03T10:14:45;5.97;;;1.77;;
51459;SDS011;37534;39.772;2.718;2022-08-03T10:17:11;1.45;;;1.35;;
51459;SDS011;37534;39.772;2.718;2022-08-03T10:19:37;6.30;;;1.50;;
51459;SDS011;37534;39.772;2.718;2022-08-03T10:22:05;1.83;;;1.50;;
51459;SDS011;37534;39.772;2.718;2022-08-03T10:24:36;6.15;;;1.52;;
51459;SDS011;37534;39.772;2.718;2022-08-03T10:27:06;2.25;;;1.30;;
51459;SDS011;37534;39.772;2.718;2022-08-03T10:29:38;2.03;;;1.20;;
51459;SDS011;37534;39.772;2.718;2022-08-03T10:32:13;1.60;;;0.98;;
51459;SDS011;37534;39.772;2.718;2022-08-03T10:34:43;7.03;;;1.42;;
51459;SDS011;37534;39.772;2.718;2022-08-03T10:37:10;6.05;;;1.15;;
51459;SDS011;37534;39.772;2.718;2022-08-03T10:39:39;3.78;;;1.42;;
51459;SDS011;37534;39.772;2.718;2022-08-03T10:42:20;1.15;;;1.10;;
51459;SDS011;37534;39.772;2.718;2022-08-03T10:44:49;2.47;;;1.45;;
51459;SDS011;37534;39.772;2.718;2022-08-03T10:47:28;1.10;;;1.08;;
51459;SDS011;37534;39.772;2.718;2022-08-03T10:49:54;1.08;;;1.00;;
51459;SDS011;37534;39.772;2.718;2022-08-03T10:52:20;2.72;;;0.90;;
51459;SDS011;37534;39.772;2.718;2022-08-03T10:54:46;1.80;;;0.82;;
51459;SDS011;37534;39.772;2.718;2022-08-03T11:00:15;2.90;;;1.17;;
51459;SDS011;37534;39.772;2.718;2022-08-03T11:05:29;1.20;;;1.10;;
51459;SDS011;37534;39.772;2.718;2022-08-03T11:08:29;1.08;;;1.00;;
51459;SDS011;37534;39.772;2.718;2022-08-03T11:10:51;3.55;;;1.80;;
51459;SDS011;37534;39.772;2.718;2022-08-03T11:13:19;6.13;;;1.45;;
51459;SDS011;37534;39.772;2.718;2022-08-03T11:15:48;8.15;;;1.67;;
51459;SDS011;37534;39.772;2.718;2022-08-03T11:18:15;15.15;;;2.05;;
51459;SDS011;37534;39.772;2.718;2022-08-03T11:20:48;2.45;;;1.77;;
51459;SDS011;37534;39.772;2.718;2022-08-03T11:23:16;1.65;;;1.40;;
51459;SDS011;37534;39.772;2.718;2022-08-03T11:28:37;2.08;;;1.23;;
51459;SDS011;37534;39.772;2.718;2022-08-03T11:31:46;1.48;;;1.13;;
51459;SDS011;37534;39.772;2.718;2022-08-03T11:34:15;1.33;;;1.20;;
51459;SDS011;37534;39.772;2.718;2022-08-03T11:39:44;13.43;;;1.27;;
51459;SDS011;37534;39.772;2.718;2022-08-03T11:44:46;2.33;;;1.20;;
51459;SDS011;37534;39.772;2.718;2022-08-03T11:47:17;1.50;;;1.35;;
51459;SDS011;37534;39.772;2.718;2022-08-03T11:49:48;1.58;;;1.48;;
51459;SDS011;37534;39.772;2.718;2022-08-03T11:52:16;2.10;;;1.13;;
51459;SDS011;37534;39.772;2.718;2022-08-03T11:54:43;1.33;;;1.13;;
51459;SDS011;37534;39.772;2.718;2022-08-03T11:57:09;4.53;;;1.33;;
51459;SDS011;37534;39.772;2.718;2022-08-03T11:59:35;2.03;;;1.33;;
51459;SDS011;37534;39.772;2.718;2022-08-03T12:02:08;1.20;;;1.10;;
51459;SDS011;37534;39.772;2.718;2022-08-03T12:04:55;1.10;;;0.80;;
51459;SDS011;37534;39.772;2.718;2022-08-03T12:07:26;3.47;;;1.60;;
51459;SDS011;37534;39.772;2.718;2022-08-03T12:10:09;3.58;;;1.10;;
51459;SDS011;37534;39.772;2.718;2022-08-03T12:12:38;2.03;;;1.38;;
51459;SDS011;37534;39.772;2.718;2022-08-03T12:15:06;0.63;;;0.63;;
51459;SDS011;37534;39.772;2.718;2022-08-03T12:17:37;1.55;;;1.27;;
51459;SDS011;37534;39.772;2.718;2022-08-03T12:20:07;5.65;;;1.30;;
51459;SDS011;37534;39.772;2.718;2022-08-03T12:22:34;0.95;;;0.80;;
51459;SDS011;37534;39.772;2.718;2022-08-03T12:25:17;3.92;;;0.98;;
51459;SDS011;37534;39.772;2.718;2022-08-03T12:27:45;2.40;;;1.02;;
51459;SDS011;37534;39.772;2.718;2022-08-03T12:30:11;0.73;;;0.73;;
51459;SDS011;37534;39.772;2.718;2022-08-03T12:32:37;1.42;;;1.27;;
51459;SDS011;37534;39.772;2.718;2022-08-03T12:35:03;1.75;;;1.17;;
51459;SDS011;37534;39.772;2.718;2022-08-03T12:37:30;2.60;;;1.17;;
51459;SDS011;37534;39.772;2.718;2022-08-03T12:39:57;3.50;;;1.25;;
51459;SDS011;37534;39.772;2.718;2022-08-03T12:42:31;1.60;;;1.30;;
51459;SDS011;37534;39.772;2.718;2022-08-03T12:44:57;2.33;;;1.23;;
51459;SDS011;37534;39.772;2.718;2022-08-03T12:47:23;4.90;;;1.23;;
51459;SDS011;37534;39.772;2.718;2022-08-03T12:49:52;4.38;;;1.50;;
51459;SDS011;37534;39.772;2.718;2022-08-03T12:52:19;1.88;;;1.60;;
51459;SDS011;37534;39.772;2.718;2022-08-03T12:54:58;1.95;;;0.93;;
51459;SDS011;37534;39.772;2.718;2022-08-03T12:57:25;2.63;;;1.08;;
51459;SDS011;37534;39.772;2.718;2022-08-03T13:00:12;1.95;;;1.20;;
51459;SDS011;37534;39.772;2.718;2022-08-03T13:02:39;8.65;;;1.38;;
51459;SDS011;37534;39.772;2.718;2022-08-03T13:05:23;3.05;;;1.63;;
51459;SDS011;37534;39.772;2.718;2022-08-03T13:07:48;1.17;;;0.95;;
51459;SDS011;37534;39.772;2.718;2022-08-03T13:10:29;1.42;;;1.33;;
51459;SDS011;37534;39.772;2.718;2022-08-03T13:12:56;5.93;;;1.15;;
51459;SDS011;37534;39.772;2.718;2022-08-03T13:15:24;1.08;;;0.98;;
51459;SDS011;37534;39.772;2.718;2022-08-03T13:17:54;1.15;;;1.05;;
51459;SDS011;37534;39.772;2.718;2022-08-03T13:20:20;1.45;;;1.30;;
51459;SDS011;37534;39.772;2.718;2022-08-03T13:22:46;2.22;;;1.33;;
51459;SDS011;37534;39.772;2.718;2022-08-03T13:25:13;2.65;;;1.15;;
51459;SDS011;37534;39.772;2.718;2022-08-03T13:27:38;2.53;;;1.33;;
51459;SDS011;37534;39.772;2.718;2022-08-03T13:30:05;1.85;;;1.27;;
51459;SDS011;37534;39.772;2.718;2022-08-03T13:32:32;1.90;;;1.33;;
51459;SDS011;37534;39.772;2.718;2022-08-03T13:34:57;1.35;;;1.30;;
51459;SDS011;37534;39.772;2.718;2022-08-03T13:37:24;6.13;;;1.30;;
51459;SDS011;37534;39.772;2.718;2022-08-03T13:39:49;1.15;;;1.05;;
51459;SDS011;37534;39.772;2.718;2022-08-03T13:42:15;0.90;;;0.90;;
51459;SDS011;37534;39.772;2.718;2022-08-03T13:44:41;7.45;;;1.40;;
51459;SDS011;37534;39.772;2.718;2022-08-03T13:47:07;5.18;;;1.20;;
51459;SDS011;37534;39.772;2.718;2022-08-03T13:49:32;2.25;;;1.55;;
51459;SDS011;37534;39.772;2.718;2022-08-03T13:51:58;1.40;;;1.30;;
51459;SDS011;37534;39.772;2.718;2022-08-03T13:54:23;1.55;;;1.23;;
51459;SDS011;37534;39.772;2.718;2022-08-03T13:56:49;2.42;;;1.40;;
51459;SDS011;37534;39.772;2.718;2022-08-03T13:59:21;1.48;;;1.15;;
51459;SDS011;37534;39.772;2.718;2022-08-03T14:01:48;1.50;;;1.40;;
51459;SDS011;37534;39.772;2.718;2022-08-03T14:04:15;1.58;;;1.30;;
51459;SDS011;37534;39.772;2.718;2022-08-03T14:06:41;2.00;;;1.10;;
51459;SDS011;37534;39.772;2.718;2022-08-03T14:09:09;1.15;;;1.05;;
51459;SDS011;37534;39.772;2.718;2022-08-03T14:11:35;1.58;;;1.48;;
51459;SDS011;37534;39.772;2.718;2022-08-03T14:14:00;1.23;;;1.10;;
51459;SDS011;37534;39.772;2.718;2022-08-03T14:16:26;1.35;;;1.25;;
51459;SDS011;37534;39.772;2.718;2022-08-03T14:18:51;1.30;;;1.20;;
51459;SDS011;37534;39.772;2.718;2022-08-03T14:21:17;1.60;;;1.27;;
51459;SDS011;37534;39.772;2.718;2022-08-03T14:23:43;1.25;;;1.15;;
51459;SDS011;37534;39.772;2.718;2022-08-03T14:26:09;2.72;;;1.27;;
51459;SDS011;37534;39.772;2.718;2022-08-03T14:28:36;2.25;;;1.20;;
51459;SDS011;37534;39.772;2.718;2022-08-03T14:31:02;1.95;;;1.00;;
51459;SDS011;37534;39.772;2.718;2022-08-03T14:33:28;1.60;;;1.10;;
51459;SDS011;37534;39.772;2.718;2022-08-03T14:35:54;1.77;;;1.20;;
51459;SDS011;37534;39.772;2.718;2022-08-03T14:38:19;1.48;;;1.30;;
51459;SDS011;37534;39.772;2.718;2022-08-03T14:40:45;3.13;;;1.15;;
51459;SDS011;37534;39.772;2.718;2022-08-03T14:43:12;2.17;;;1.30;;
51459;SDS011;37534;39.772;2.718;2022-08-03T14:45:38;1.95;;;1.08;;
51459;SDS011;37534;39.772;2.718;2022-08-03T14:48:04;2.08;;;1.10;;
51459;SDS011;37534;39.772;2.718;2022-08-03T14:50:29;2.20;;;1.08;;
51459;SDS011;37534;39.772;2.718;2022-08-03T14:52:55;1.15;;;1.05;;
51459;SDS011;37534;39.772;2.718;2022-08-03T14:55:21;1.67;;;1.55;;
51459;SDS011;37534;39.772;2.718;2022-08-03T14:57:47;1.00;;;1.00;;
51459;SDS011;37534;39.772;2.718;2022-08-03T15:00:12;1.27;;;1.17;;
51459;SDS011;37534;39.772;2.718;2022-08-03T15:02:38;1.75;;;1.10;;
51459;SDS011;37534;39.772;2.718;2022-08-03T15:05:04;1.77;;;1.30;;
51459;SDS011;37534;39.772;2.718;2022-08-03T15:07:30;4.82;;;1.08;;
51459;SDS011;37534;39.772;2.718;2022-08-03T15:09:56;1.02;;;1.00;;
51459;SDS011;37534;39.772;2.718;2022-08-03T15:12:21;1.40;;;1.10;;
51459;SDS011;37534;39.772;2.718;2022-08-03T15:14:47;1.98;;;1.00;;
51459;SDS011;37534;39.772;2.718;2022-08-03T15:17:12;2.33;;;1.27;;
51459;SDS011;37534;39.772;2.718;2022-08-03T15:19:38;3.22;;;1.25;;
51459;SDS011;37534;39.772;2.718;2022-08-03T15:22:04;0.98;;;0.95;;